sensor_id;sensor_type;location;lat;lon;timestamp;pressure;altitude;pressure_sealevel;temperature;humidity
62655;BME280;48717;55.556;37.816;2023-12-20T00:00:37;97641.72;;;2.42;100.00
62655;BME280;48717;55.556;37.816;2023-12-20T00:03:05;97617.50;;;2.30;100.00
62655;BME280;48717;55.556;37.816;2023-12-20T00:05:32;97661.66;;;2.46;100.00
62655;BME280;48717;55.556;37.816;2023-12-20T00:08:00;97640.00;;;2.41;100.00
62655;BME280;48717;55.556;37.816;2023-12-20T00:10:28;97625.31;;;2.26;100.00
62655;BME280;48717;55.556;37.816;2023-12-20T00:12:55;97641.72;;;2.42;100.00
62655;BME280;48717;55.556;37.816;2023-12-20T00:15:22;97655.59;;;2.44;100.00
62655;BME280;48717;55.556;37.816;2023-12-20T00:17:50;97658.22;;;2.42;100.00
62655;BME280;48717;55.556;37.816;2023-12-20T00:20:17;97650.41;;;2.42;100.00
62655;BME280;48717;55.556;37.816;2023-12-20T00:22:45;97636.59;;;2.29;100.00
62655;BME280;48717;55.556;37.816;2023-12-20T00:25:13;97670.34;;;2.45;100.00
62655;BME280;48717;55.556;37.816;2023-12-20T00:27:40;97657.31;;;2.42;100.00
62655;BME280;48717;55.556;37.816;2023-12-20T00:30:08;97666.00;;;2.47;100.00
62655;BME280;48717;55.556;37.816;2023-12-20T00:32:36;97657.34;;;2.39;100.00
62655;BME280;48717;55.556;37.816;2023-12-20T00:35:04;97661.69;;;2.43;100.00
62655;BME280;48717;55.556;37.816;2023-12-20T00:37:31;97655.63;;;2.31;100.00
62655;BME280;48717;55.556;37.816;2023-12-20T00:39:59;97670.34;;;2.42;100.00
62655;BME280;48717;55.556;37.816;2023-12-20T00:42:26;97677.28;;;2.38;100.00
62655;BME280;48717;55.556;37.816;2023-12-20T00:44:54;97669.50;;;2.43;100.00
62655;BME280;48717;55.556;37.816;2023-12-20T00:47:22;97672.09;;;2.44;100.00
62655;BME280;48717;55.556;37.816;2023-12-20T00:49:49;97655.63;;;2.34;100.00
62655;BME280;48717;55.556;37.816;2023-12-20T00:52:17;97672.94;;;2.42;100.00
62655;BME280;48717;55.556;37.816;2023-12-20T00:54:45;97664.28;;;2.37;100.00
62655;BME280;48717;55.556;37.816;2023-12-20T00:57:12;97670.38;;;2.40;100.00
62655;BME280;48717;55.556;37.816;2023-12-20T00:59:40;97666.88;;;2.38;100.00
62655;BME280;48717;55.556;37.816;2023-12-20T01:02:07;97654.75;;;2.35;100.00
62655;BME280;48717;55.556;37.816;2023-12-20T01:04:36;97650.44;;;2.34;100.00
62655;BME280;48717;55.556;37.816;2023-12-20T01:07:03;97659.09;;;2.40;100.00
62655;BME280;48717;55.556;37.816;2023-12-20T01:09:30;97651.28;;;2.43;100.00
62655;BME280;48717;55.556;37.816;2023-12-20T01:11:58;97657.31;;;2.42;100.00
62655;BME280;48717;55.556;37.816;2023-12-20T01:14:25;97651.28;;;2.44;100.00
62655;BME280;48717;55.556;37.816;2023-12-20T01:16:52;97648.69;;;2.40;100.00
62655;BME280;48717;55.556;37.816;2023-12-20T01:19:20;97618.38;;;2.28;100.00
62655;BME280;48717;55.556;37.816;2023-12-20T01:21:47;97628.75;;;2.32;100.00
62655;BME280;48717;55.556;37.816;2023-12-20T01:24:15;97641.75;;;2.39;100.00
62655;BME280;48717;55.556;37.816;2023-12-20T01:26:43;97638.28;;;2.37;100.00
62655;BME280;48717;55.556;37.816;2023-12-20T01:29:10;97629.63;;;2.31;100.00
62655;BME280;48717;55.556;37.816;2023-12-20T01:31:38;97607.97;;;2.23;100.00
62655;BME280;48717;55.556;37.816;2023-12-20T01:34:05;97619.22;;;2.28;100.00
62655;BME280;48717;55.556;37.816;2023-12-20T01:36:33;97607.13;;;2.24;100.00
62655;BME280;48717;55.556;37.816;2023-12-20T01:39:00;97628.78;;;2.29;100.00
62655;BME280;48717;55.556;37.816;2023-12-20T01:41:29;97640.91;;;2.30;100.00
62655;BME280;48717;55.556;37.816;2023-12-20T01:43:56;97631.38;;;2.29;100.00
62655;BME280;48717;55.556;37.816;2023-12-20T01:46:23;97638.31;;;2.27;100.00
62655;BME280;48717;55.556;37.816;2023-12-20T01:48:52;97637.44;;;2.28;100.00
62655;BME280;48717;55.556;37.816;2023-12-20T01:51:20;97643.50;;;2.27;100.00
62655;BME280;48717;55.556;37.816;2023-12-20T01:53:48;97623.59;;;2.26;100.00
62655;BME280;48717;55.556;37.816;2023-12-20T01:56:16;97591.56;;;2.12;100.00
62655;BME280;48717;55.556;37.816;2023-12-20T01:58:45;97592.41;;;2.18;100.00
62655;BME280;48717;55.556;37.816;2023-12-20T02:01:13;97550.00;;;1.93;100.00
62655;BME280;48717;55.556;37.816;2023-12-20T02:03:42;97616.66;;;2.22;100.00
62655;BME280;48717;55.556;37.816;2023-12-20T02:06:09;97589.84;;;2.01;100.00
62655;BME280;48717;55.556;37.816;2023-12-20T02:08:37;97618.41;;;2.18;100.00
62655;BME280;48717;55.556;37.816;2023-12-20T02:11:04;97617.53;;;2.18;100.00
62655;BME280;48717;55.556;37.816;2023-12-20T02:13:32;97558.72;;;1.89;100.00
62655;BME280;48717;55.556;37.816;2023-12-20T02:16:00;97614.06;;;2.20;100.00
62655;BME280;48717;55.556;37.816;2023-12-20T02:18:27;97620.97;;;2.23;100.00
62655;BME280;48717;55.556;37.816;2023-12-20T02:20:55;97603.69;;;2.09;100.00
62655;BME280;48717;55.556;37.816;2023-12-20T02:23:23;97603.66;;;2.17;100.00
62655;BME280;48717;55.556;37.816;2023-12-20T02:25:51;97601.97;;;2.10;100.00
62655;BME280;48717;55.556;37.816;2023-12-20T02:28:20;97596.78;;;2.02;100.00
62655;BME280;48717;55.556;37.816;2023-12-20T02:30:48;97596.75;;;2.05;100.00
62655;BME280;48717;55.556;37.816;2023-12-20T02:33:16;97579.50;;;1.89;100.00
62655;BME280;48717;55.556;37.816;2023-12-20T02:35:43;97602.88;;;2.00;100.00
62655;BME280;48717;55.556;37.816;2023-12-20T02:38:11;97594.19;;;1.98;100.00
62655;BME280;48717;55.556;37.816;2023-12-20T02:40:38;97581.22;;;1.88;100.00
62655;BME280;48717;55.556;37.816;2023-12-20T02:43:14;97569.09;;;1.79;100.00
62655;BME280;48717;55.556;37.816;2023-12-20T02:45:42;97585.50;;;1.97;100.00
62655;BME280;48717;55.556;37.816;2023-12-20T02:48:09;97595.06;;;1.97;100.00
62655;BME280;48717;55.556;37.816;2023-12-20T02:50:37;97573.41;;;1.83;100.00
62655;BME280;48717;55.556;37.816;2023-12-20T02:53:04;97593.34;;;1.91;100.00
62655;BME280;48717;55.556;37.816;2023-12-20T02:55:32;97600.25;;;1.95;100.00
62655;BME280;48717;55.556;37.816;2023-12-20T02:57:59;97536.25;;;1.60;100.00
62655;BME280;48717;55.556;37.816;2023-12-20T03:00:27;97599.38;;;1.93;100.00
62655;BME280;48717;55.556;37.816;2023-12-20T03:02:54;97595.06;;;1.95;100.00
62655;BME280;48717;55.556;37.816;2023-12-20T03:05:21;97596.81;;;1.90;100.00
62655;BME280;48717;55.556;37.816;2023-12-20T03:07:49;97596.81;;;1.91;100.00
62655;BME280;48717;55.556;37.816;2023-12-20T03:10:18;97595.06;;;1.92;100.00
62655;BME280;48717;55.556;37.816;2023-12-20T03:12:52;97593.34;;;1.89;100.00
62655;BME280;48717;55.556;37.816;2023-12-20T03:15:20;97608.06;;;1.92;100.00
62655;BME280;48717;55.556;37.816;2023-12-20T03:17:47;97602.00;;;1.90;100.00
62655;BME280;48717;55.556;37.816;2023-12-20T03:20:15;97608.91;;;1.97;100.00
62655;BME280;48717;55.556;37.816;2023-12-20T03:22:42;97606.31;;;1.97;100.00
62655;BME280;48717;55.556;37.816;2023-12-20T03:25:09;97592.47;;;1.95;100.00
62655;BME280;48717;55.556;37.816;2023-12-20T03:27:37;97597.63;;;2.01;100.00
62655;BME280;48717;55.556;37.816;2023-12-20T03:30:06;97582.94;;;1.94;100.00
62655;BME280;48717;55.556;37.816;2023-12-20T03:32:34;97593.31;;;2.00;100.00
62655;BME280;48717;55.556;37.816;2023-12-20T03:35:01;97595.03;;;2.01;100.00
62655;BME280;48717;55.556;37.816;2023-12-20T03:37:29;97545.72;;;1.70;100.00
62655;BME280;48717;55.556;37.816;2023-12-20T03:39:57;97589.00;;;1.98;100.00
62655;BME280;48717;55.556;37.816;2023-12-20T03:42:24;97592.44;;;2.01;100.00
62655;BME280;48717;55.556;37.816;2023-12-20T03:44:51;97587.28;;;1.97;100.00
62655;BME280;48717;55.556;37.816;2023-12-20T03:47:18;97609.75;;;2.10;100.00
62655;BME280;48717;55.556;37.816;2023-12-20T03:49:46;97595.00;;;2.11;100.00
62655;BME280;48717;55.556;37.816;2023-12-20T03:52:13;97595.03;;;2.04;100.00
62655;BME280;48717;55.556;37.816;2023-12-20T03:54:41;97604.56;;;2.10;100.00
62655;BME280;48717;55.556;37.816;2023-12-20T03:57:11;97609.75;;;2.08;100.00
62655;BME280;48717;55.556;37.816;2023-12-20T03:59:38;97591.56;;;2.08;100.00
62655;BME280;48717;55.556;37.816;2023-12-20T04:02:05;97598.47;;;2.09;100.00
62655;BME280;48717;55.556;37.816;2023-12-20T04:04:33;97590.72;;;2.05;100.00
62655;BME280;48717;55.556;37.816;2023-12-20T04:07:00;97624.47;;;2.13;100.00
62655;BME280;48717;55.556;37.816;2023-12-20T04:09:28;97614.97;;;2.13;100.00
62655;BME280;48717;55.556;37.816;2023-12-20T04:11:55;97614.94;;;2.15;100.00
62655;BME280;48717;55.556;37.816;2023-12-20T04:14:23;97610.59;;;2.14;100.00
62655;BME280;48717;55.556;37.816;2023-12-20T04:16:52;97610.59;;;2.14;100.00
62655;BME280;48717;55.556;37.816;2023-12-20T04:19:19;97621.00;;;2.15;100.00
62655;BME280;48717;55.556;37.816;2023-12-20T04:21:47;97608.88;;;2.13;100.00
62655;BME280;48717;55.556;37.816;2023-12-20T04:24:14;97620.16;;;2.13;100.00
62655;BME280;48717;55.556;37.816;2023-12-20T04:26:42;97616.69;;;2.16;100.00
62655;BME280;48717;55.556;37.816;2023-12-20T04:29:09;97600.25;;;2.07;100.00
62655;BME280;48717;55.556;37.816;2023-12-20T04:31:36;97612.34;;;2.18;100.00
62655;BME280;48717;55.556;37.816;2023-12-20T04:34:06;97574.28;;;1.95;100.00
62655;BME280;48717;55.556;37.816;2023-12-20T04:36:33;97598.50;;;1.99;100.00
62655;BME280;48717;55.556;37.816;2023-12-20T04:39:00;97633.13;;;2.18;100.00
62655;BME280;48717;55.556;37.816;2023-12-20T04:41:30;97635.75;;;2.19;100.00
62655;BME280;48717;55.556;37.816;2023-12-20T04:43:57;97610.63;;;2.04;100.00
62655;BME280;48717;55.556;37.816;2023-12-20T04:46:25;97630.53;;;2.18;100.00
62655;BME280;48717;55.556;37.816;2023-12-20T04:48:52;97643.53;;;2.19;100.00
62655;BME280;48717;55.556;37.816;2023-12-20T04:51:20;97642.66;;;2.22;100.00
62655;BME280;48717;55.556;37.816;2023-12-20T04:53:47;97622.72;;;2.21;100.00
62655;BME280;48717;55.556;37.816;2023-12-20T04:56:14;97574.28;;;1.95;100.00
62655;BME280;48717;55.556;37.816;2023-12-20T04:58:42;97604.56;;;2.10;100.00
62655;BME280;48717;55.556;37.816;2023-12-20T05:01:09;97633.13;;;2.21;100.00
62655;BME280;48717;55.556;37.816;2023-12-20T05:03:37;97638.34;;;2.21;100.00
62655;BME280;48717;55.556;37.816;2023-12-20T05:06:04;97628.78;;;2.23;100.00
62655;BME280;48717;55.556;37.816;2023-12-20T05:08:32;97629.66;;;2.22;100.00
62655;BME280;48717;55.556;37.816;2023-12-20T05:11:00;97631.38;;;2.23;100.00
62655;BME280;48717;55.556;37.816;2023-12-20T05:13:27;97631.41;;;2.20;100.00
62655;BME280;48717;55.556;37.816;2023-12-20T05:16:07;97629.66;;;2.25;100.00
62655;BME280;48717;55.556;37.816;2023-12-20T05:18:36;97614.13;;;2.06;100.00
62655;BME280;48717;55.556;37.816;2023-12-20T05:21:03;97608.03;;;2.09;100.00
62655;BME280;48717;55.556;37.816;2023-12-20T05:23:31;97636.59;;;2.14;100.00
62655;BME280;48717;55.556;37.816;2023-12-20T05:25:58;97640.09;;;2.16;100.00
62655;BME280;48717;55.556;37.816;2023-12-20T05:28:26;97648.75;;;2.21;100.00
62655;BME280;48717;55.556;37.816;2023-12-20T05:30:54;97634.88;;;2.13;100.00
62655;BME280;48717;55.556;37.816;2023-12-20T05:33:21;97645.25;;;2.20;100.00
62655;BME280;48717;55.556;37.816;2023-12-20T05:35:49;97668.66;;;2.20;100.00
62655;BME280;48717;55.556;37.816;2023-12-20T05:38:16;97652.22;;;2.17;100.00
62655;BME280;48717;55.556;37.816;2023-12-20T05:40:43;97664.34;;;2.21;100.00
62655;BME280;48717;55.556;37.816;2023-12-20T05:43:11;97661.75;;;2.19;100.00
62655;BME280;48717;55.556;37.816;2023-12-20T05:45:38;97671.25;;;2.19;100.00
62655;BME280;48717;55.556;37.816;2023-12-20T05:48:06;97666.06;;;2.17;100.00
62655;BME280;48717;55.556;37.816;2023-12-20T05:50:34;97660.00;;;2.17;100.00
62655;BME280;48717;55.556;37.816;2023-12-20T05:53:02;97664.34;;;2.15;100.00
62655;BME280;48717;55.556;37.816;2023-12-20T05:55:29;97640.09;;;2.00;100.00
62655;BME280;48717;55.556;37.816;2023-12-20T05:57:57;97659.19;;;2.02;100.00
62655;BME280;48717;55.556;37.816;2023-12-20T06:00:24;97659.16;;;2.05;100.00
62655;BME280;48717;55.556;37.816;2023-12-20T06:02:52;97642.72;;;1.91;100.00
62655;BME280;48717;55.556;37.816;2023-12-20T06:05:19;97621.06;;;1.79;100.00
62655;BME280;48717;55.556;37.816;2023-12-20T06:07:47;97666.94;;;2.05;100.00
62655;BME280;48717;55.556;37.816;2023-12-20T06:10:15;97666.97;;;2.02;100.00
62655;BME280;48717;55.556;37.816;2023-12-20T06:12:43;97643.59;;;1.87;100.00
62655;BME280;48717;55.556;37.816;2023-12-20T06:15:12;97637.53;;;1.83;100.00
62655;BME280;48717;55.556;37.816;2023-12-20T06:17:39;97650.50;;;1.88;100.00
62655;BME280;48717;55.556;37.816;2023-12-20T06:20:07;97681.69;;;2.03;100.00
62655;BME280;48717;55.556;37.816;2023-12-20T06:22:35;97681.69;;;2.03;100.00
62655;BME280;48717;55.556;37.816;2023-12-20T06:25:04;97674.75;;;2.05;100.00
62655;BME280;48717;55.556;37.816;2023-12-20T06:27:32;97647.94;;;1.85;100.00
62655;BME280;48717;55.556;37.816;2023-12-20T06:29:59;97678.25;;;1.98;100.00
62655;BME280;48717;55.556;37.816;2023-12-20T06:32:29;97686.03;;;2.04;100.00
62655;BME280;48717;55.556;37.816;2023-12-20T06:34:57;97691.22;;;2.04;100.00
62655;BME280;48717;55.556;37.816;2023-12-20T06:37:25;97681.69;;;2.03;100.00
62655;BME280;48717;55.556;37.816;2023-12-20T06:39:52;97656.56;;;1.99;100.00
62655;BME280;48717;55.556;37.816;2023-12-20T06:42:19;97678.22;;;2.07;100.00
62655;BME280;48717;55.556;37.816;2023-12-20T06:44:46;97647.06;;;1.95;100.00
62655;BME280;48717;55.556;37.816;2023-12-20T06:47:13;97664.38;;;2.02;100.00
62655;BME280;48717;55.556;37.816;2023-12-20T06:49:41;97670.44;;;2.09;100.00
62655;BME280;48717;55.556;37.816;2023-12-20T06:52:08;97654.84;;;2.04;100.00
62655;BME280;48717;55.556;37.816;2023-12-20T06:54:36;97671.28;;;2.16;100.00
62655;BME280;48717;55.556;37.816;2023-12-20T06:57:03;97662.59;;;2.11;100.00
62655;BME280;48717;55.556;37.816;2023-12-20T06:59:32;97685.13;;;2.18;100.00
62655;BME280;48717;55.556;37.816;2023-12-20T07:01:59;97670.41;;;2.20;100.00
62655;BME280;48717;55.556;37.816;2023-12-20T07:04:26;97662.63;;;2.17;100.00
62655;BME280;48717;55.556;37.816;2023-12-20T07:06:54;97685.13;;;2.27;100.00
62655;BME280;48717;55.556;37.816;2023-12-20T07:09:25;97674.75;;;2.21;100.00
62655;BME280;48717;55.556;37.816;2023-12-20T07:11:52;97692.94;;;2.32;100.00
62655;BME280;48717;55.556;37.816;2023-12-20T07:14:20;97667.78;;;2.23;100.00
62655;BME280;48717;55.556;37.816;2023-12-20T07:16:47;97689.44;;;2.31;100.00
62655;BME280;48717;55.556;37.816;2023-12-20T07:19:14;97680.75;;;2.35;100.00
62655;BME280;48717;55.556;37.816;2023-12-20T07:21:42;97677.28;;;2.35;100.00
62655;BME280;48717;55.556;37.816;2023-12-20T07:24:09;97681.66;;;2.34;100.00
62655;BME280;48717;55.556;37.816;2023-12-20T07:26:36;97638.34;;;2.05;100.00
62655;BME280;48717;55.556;37.816;2023-12-20T07:29:05;97691.16;;;2.35;100.00
62655;BME280;48717;55.556;37.816;2023-12-20T07:31:32;97688.56;;;2.35;100.00
62655;BME280;48717;55.556;37.816;2023-12-20T07:33:59;97685.97;;;2.32;100.00
62655;BME280;48717;55.556;37.816;2023-12-20T07:36:26;97690.31;;;2.27;100.00
62655;BME280;48717;55.556;37.816;2023-12-20T07:38:54;97681.66;;;2.25;100.00
62655;BME280;48717;55.556;37.816;2023-12-20T07:41:21;97699.84;;;2.33;100.00
62655;BME280;48717;55.556;37.816;2023-12-20T07:43:50;97692.03;;;2.34;100.00
62655;BME280;48717;55.556;37.816;2023-12-20T07:46:18;97719.78;;;2.32;100.00
62655;BME280;48717;55.556;37.816;2023-12-20T07:48:49;97719.78;;;2.35;100.00
62655;BME280;48717;55.556;37.816;2023-12-20T07:51:17;97711.13;;;2.33;100.00
62655;BME280;48717;55.556;37.816;2023-12-20T07:53:45;97707.66;;;2.36;100.00
62655;BME280;48717;55.556;37.816;2023-12-20T07:56:19;97716.34;;;2.33;100.00
62655;BME280;48717;55.556;37.816;2023-12-20T07:58:47;97710.25;;;2.33;100.00
62655;BME280;48717;55.556;37.816;2023-12-20T08:01:19;97683.38;;;2.23;100.00
62655;BME280;48717;55.556;37.816;2023-12-20T08:03:49;97692.03;;;2.30;100.00
62655;BME280;48717;55.556;37.816;2023-12-20T08:06:17;97724.09;;;2.40;100.00
62655;BME280;48717;55.556;37.816;2023-12-20T08:08:44;97711.09;;;2.37;100.00
62655;BME280;48717;55.556;37.816;2023-12-20T08:11:20;97711.97;;;2.40;100.00
62655;BME280;48717;55.556;37.816;2023-12-20T08:13:48;97678.19;;;2.25;100.00
62655;BME280;48717;55.556;37.816;2023-12-20T08:16:15;97671.28;;;2.09;100.00
62655;BME280;48717;55.556;37.816;2023-12-20T08:18:45;97702.47;;;2.38;100.00
62655;BME280;48717;55.556;37.816;2023-12-20T08:21:13;97711.94;;;2.42;100.00
62655;BME280;48717;55.556;37.816;2023-12-20T08:23:40;97705.91;;;2.43;100.00
62655;BME280;48717;55.556;37.816;2023-12-20T08:26:08;97707.63;;;2.44;100.00
62655;BME280;48717;55.556;37.816;2023-12-20T08:28:36;97684.25;;;2.33;100.00
62655;BME280;48717;55.556;37.816;2023-12-20T08:31:03;97678.19;;;2.29;100.00
62655;BME280;48717;55.556;37.816;2023-12-20T08:33:31;97700.69;;;2.43;100.00
62655;BME280;48717;55.556;37.816;2023-12-20T08:35:58;97659.13;;;2.18;100.00
62655;BME280;48717;55.556;37.816;2023-12-20T08:38:26;97692.91;;;2.35;100.00
62655;BME280;48717;55.556;37.816;2023-12-20T08:40:53;97690.31;;;2.30;100.00
62655;BME280;48717;55.556;37.816;2023-12-20T08:43:20;97693.78;;;2.32;100.00
62655;BME280;48717;55.556;37.816;2023-12-20T08:45:48;97696.38;;;2.34;100.00
62655;BME280;48717;55.556;37.816;2023-12-20T08:48:15;97666.06;;;2.22;100.00
62655;BME280;48717;55.556;37.816;2023-12-20T08:50:43;97685.97;;;2.34;100.00
62655;BME280;48717;55.556;37.816;2023-12-20T08:53:10;97684.25;;;2.33;100.00
62655;BME280;48717;55.556;37.816;2023-12-20T08:55:38;97697.25;;;2.34;100.00
62655;BME280;48717;55.556;37.816;2023-12-20T08:58:05;97700.69;;;2.40;100.00
62655;BME280;48717;55.556;37.816;2023-12-20T09:00:34;97696.34;;;2.43;100.00
62655;BME280;48717;55.556;37.816;2023-12-20T09:03:02;97697.22;;;2.39;100.00
62655;BME280;48717;55.556;37.816;2023-12-20T09:05:29;97693.75;;;2.48;100.00
62655;BME280;48717;55.556;37.816;2023-12-20T09:07:57;97654.78;;;2.28;100.00
62655;BME280;48717;55.556;37.816;2023-12-20T09:10:25;97678.19;;;2.29;100.00
62655;BME280;48717;55.556;37.816;2023-12-20T09:12:54;97687.66;;;2.46;100.00
62655;BME280;48717;55.556;37.816;2023-12-20T09:15:24;97695.47;;;2.46;100.00
62655;BME280;48717;55.556;37.816;2023-12-20T09:17:53;97679.88;;;2.46;100.00
62655;BME280;48717;55.556;37.816;2023-12-20T09:20:21;97666.88;;;2.38;100.00
62655;BME280;48717;55.556;37.816;2023-12-20T09:22:50;97697.22;;;2.44;100.00
62655;BME280;48717;55.556;37.816;2023-12-20T09:25:18;97688.53;;;2.48;100.00
62655;BME280;48717;55.556;37.816;2023-12-20T09:27:46;97697.22;;;2.41;100.00
62655;BME280;48717;55.556;37.816;2023-12-20T09:30:13;97679.91;;;2.44;100.00
62655;BME280;48717;55.556;37.816;2023-12-20T09:32:54;97701.56;;;2.50;100.00
62655;BME280;48717;55.556;37.816;2023-12-20T09:35:23;97679.91;;;2.33;100.00
62655;BME280;48717;55.556;37.816;2023-12-20T09:37:51;97684.22;;;2.47;100.00
62655;BME280;48717;55.556;37.816;2023-12-20T09:40:19;97690.28;;;2.52;100.00
62655;BME280;48717;55.556;37.816;2023-12-20T09:42:57;97687.66;;;2.51;100.00
62655;BME280;48717;55.556;37.816;2023-12-20T09:45:25;97679.88;;;2.46;100.00
62655;BME280;48717;55.556;37.816;2023-12-20T09:47:53;97689.38;;;2.50;100.00
62655;BME280;48717;55.556;37.816;2023-12-20T09:50:24;97692.00;;;2.53;100.00
62655;BME280;48717;55.556;37.816;2023-12-20T09:52:57;97662.53;;;2.42;100.00
62655;BME280;48717;55.556;37.816;2023-12-20T09:55:27;97663.41;;;2.42;100.00
62655;BME280;48717;55.556;37.816;2023-12-20T09:57:56;97686.78;;;2.53;100.00
62655;BME280;48717;55.556;37.816;2023-12-20T10:00:24;97675.50;;;2.53;100.00
62655;BME280;48717;55.556;37.816;2023-12-20T10:02:57;97676.38;;;2.53;100.00
62655;BME280;48717;55.556;37.816;2023-12-20T10:05:32;97669.47;;;2.55;100.00
62655;BME280;48717;55.556;37.816;2023-12-20T10:08:00;97668.63;;;2.47;100.00
62655;BME280;48717;55.556;37.816;2023-12-20T10:10:29;97697.19;;;2.53;100.00
62655;BME280;48717;55.556;37.816;2023-12-20T10:13:12;97686.78;;;2.52;100.00
62655;BME280;48717;55.556;37.816;2023-12-20T10:15:40;97685.94;;;2.46;100.00
62655;BME280;48717;55.556;37.816;2023-12-20T10:18:12;97666.03;;;2.38;100.00
62655;BME280;48717;55.556;37.816;2023-12-20T10:20:40;97709.34;;;2.48;100.00
62655;BME280;48717;55.556;37.816;2023-12-20T10:23:09;97668.63;;;2.34;100.00
62655;BME280;48717;55.556;37.816;2023-12-20T10:25:37;97638.38;;;2.12;100.00
62655;BME280;48717;55.556;37.816;2023-12-20T10:30:38;97695.47;;;2.47;100.00
62655;BME280;48717;55.556;37.816;2023-12-20T10:33:07;97670.38;;;2.32;100.00
62655;BME280;48717;55.556;37.816;2023-12-20T10:35:36;97695.47;;;2.46;100.00
62655;BME280;48717;55.556;37.816;2023-12-20T10:38:05;97694.63;;;2.47;100.00
62655;BME280;48717;55.556;37.816;2023-12-20T10:40:36;97702.44;;;2.44;100.00
62655;BME280;48717;55.556;37.816;2023-12-20T10:43:05;97699.81;;;2.42;100.00
62655;BME280;48717;55.556;37.816;2023-12-20T10:45:32;97691.16;;;2.42;100.00
62655;BME280;48717;55.556;37.816;2023-12-20T10:48:02;97681.63;;;2.41;100.00
62655;BME280;48717;55.556;37.816;2023-12-20T10:50:31;97668.63;;;2.30;100.00
62655;BME280;48717;55.556;37.816;2023-12-20T10:52:58;97673.84;;;2.30;100.00
62655;BME280;48717;55.556;37.816;2023-12-20T10:55:27;97685.94;;;2.42;100.00
62655;BME280;48717;55.556;37.816;2023-12-20T10:58:00;97672.94;;;2.42;100.00
62655;BME280;48717;55.556;37.816;2023-12-20T11:00:35;97702.47;;;2.38;100.00
62655;BME280;48717;55.556;37.816;2023-12-20T11:03:08;97692.03;;;2.34;100.00
62655;BME280;48717;55.556;37.816;2023-12-20T11:05:40;97685.97;;;2.37;100.00
62655;BME280;48717;55.556;37.816;2023-12-20T11:08:19;97694.66;;;2.36;100.00
62655;BME280;48717;55.556;37.816;2023-12-20T11:13:58;97690.28;;;2.37;100.00
62655;BME280;48717;55.556;37.816;2023-12-20T11:16:27;97693.78;;;2.26;100.00
62655;BME280;48717;55.556;37.816;2023-12-20T11:19:07;97700.69;;;2.37;100.00
62655;BME280;48717;55.556;37.816;2023-12-20T11:21:35;97705.94;;;2.33;100.00
62655;BME280;48717;55.556;37.816;2023-12-20T11:24:03;97693.78;;;2.35;100.00
62655;BME280;48717;55.556;37.816;2023-12-20T11:26:30;97688.59;;;2.26;100.00
62655;BME280;48717;55.556;37.816;2023-12-20T11:29:37;97702.44;;;2.34;100.00
62655;BME280;48717;55.556;37.816;2023-12-20T11:32:28;97698.13;;;2.33;100.00
62655;BME280;48717;55.556;37.816;2023-12-20T11:37:36;97705.06;;;2.30;100.00
62655;BME280;48717;55.556;37.816;2023-12-20T11:40:11;97691.22;;;2.20;100.00
62655;BME280;48717;55.556;37.816;2023-12-20T11:42:44;97718.06;;;2.31;100.00
62655;BME280;48717;55.556;37.816;2023-12-20T11:45:19;97692.06;;;2.19;100.00
62655;BME280;48717;55.556;37.816;2023-12-20T11:47:51;97707.66;;;2.22;100.00
62655;BME280;48717;55.556;37.816;2023-12-20T11:50:19;97713.72;;;2.29;100.00
62655;BME280;48717;55.556;37.816;2023-12-20T11:52:50;97692.94;;;2.19;100.00
62655;BME280;48717;55.556;37.816;2023-12-20T11:55:18;97697.28;;;2.16;100.00
62655;BME280;48717;55.556;37.816;2023-12-20T11:57:46;97711.16;;;2.24;100.00
62655;BME280;48717;55.556;37.816;2023-12-20T12:00:14;97692.94;;;2.24;100.00
62655;BME280;48717;55.556;37.816;2023-12-20T12:02:42;97705.06;;;2.20;100.00
62655;BME280;48717;55.556;37.816;2023-12-20T12:05:13;97669.56;;;2.02;100.00
62655;BME280;48717;55.556;37.816;2023-12-20T12:07:40;97689.47;;;2.11;100.00
62655;BME280;48717;55.556;37.816;2023-12-20T12:10:07;97704.22;;;2.20;100.00
62655;BME280;48717;55.556;37.816;2023-12-20T12:12:35;97707.69;;;2.16;100.00
62655;BME280;48717;55.556;37.816;2023-12-20T12:15:03;97668.69;;;1.99;100.00
62655;BME280;48717;55.556;37.816;2023-12-20T12:17:32;97662.63;;;1.92;100.00
62655;BME280;48717;55.556;37.816;2023-12-20T12:20:04;97698.16;;;2.10;100.00
62655;BME280;48717;55.556;37.816;2023-12-20T12:22:31;97722.41;;;2.14;100.00
62655;BME280;48717;55.556;37.816;2023-12-20T12:25:10;97727.59;;;2.11;100.00
62655;BME280;48717;55.556;37.816;2023-12-20T12:27:43;97709.41;;;2.01;100.00
62655;BME280;48717;55.556;37.816;2023-12-20T12:30:11;97700.75;;;1.99;100.00
62655;BME280;48717;55.556;37.816;2023-12-20T12:32:40;97716.34;;;2.05;100.00
62655;BME280;48717;55.556;37.816;2023-12-20T12:35:08;97728.47;;;2.09;100.00
62655;BME280;48717;55.556;37.816;2023-12-20T12:37:39;97719.81;;;2.11;100.00
62655;BME280;48717;55.556;37.816;2023-12-20T12:40:11;97718.09;;;2.06;100.00
62655;BME280;48717;55.556;37.816;2023-12-20T12:42:40;97724.16;;;2.01;100.00
62655;BME280;48717;55.556;37.816;2023-12-20T12:45:08;97728.50;;;2.05;100.00
62655;BME280;48717;55.556;37.816;2023-12-20T12:47:36;97747.56;;;2.02;100.00
62655;BME280;48717;55.556;37.816;2023-12-20T12:50:04;97724.16;;;1.91;100.00
62655;BME280;48717;55.556;37.816;2023-12-20T12:52:33;97746.69;;;2.02;100.00
62655;BME280;48717;55.556;37.816;2023-12-20T12:55:00;97743.25;;;2.00;100.00
62655;BME280;48717;55.556;37.816;2023-12-20T12:57:30;97716.38;;;1.80;100.00
62655;BME280;48717;55.556;37.816;2023-12-20T12:59:57;97726.75;;;1.90;100.00
62655;BME280;48717;55.556;37.816;2023-12-20T13:02:25;97738.88;;;1.97;100.00
62655;BME280;48717;55.556;37.816;2023-12-20T13:04:52;97740.63;;;1.98;100.00